createdAt,value
2023-01-29T00:01:59.688Z,67.50
2023-01-29T00:04:26.495Z,67.60
2023-01-29T00:06:53.952Z,67.60
2023-01-29T00:09:20.924Z,67.50
2023-01-29T00:11:47.739Z,67.50
2023-01-29T00:14:14.619Z,67.50
2023-01-29T00:16:41.649Z,67.50
2023-01-29T00:19:08.480Z,67.60
2023-01-29T00:21:35.509Z,67.60
2023-01-29T00:24:02.343Z,67.60
2023-01-29T00:26:29.304Z,67.70
2023-01-29T00:29:02.833Z,67.80
2023-01-29T00:31:29.910Z,67.80
2023-01-29T00:33:57.177Z,67.70
2023-01-29T00:36:25.060Z,67.70
2023-01-29T00:38:58.690Z,67.70
2023-01-29T00:41:50.287Z,67.80
2023-01-29T00:44:36.585Z,67.70
2023-01-29T00:47:04.844Z,67.70
2023-01-29T00:49:31.833Z,67.70
2023-01-29T00:52:17.249Z,67.60
2023-01-29T00:54:44.108Z,67.80
2023-01-29T00:57:10.841Z,67.60
2023-01-29T00:59:37.854Z,67.80
2023-01-29T01:02:23.387Z,67.80
2023-01-29T01:04:50.213Z,67.70
2023-01-29T01:07:17.416Z,67.80
2023-01-29T01:10:02.747Z,67.80
2023-01-29T01:12:30.011Z,68.00
2023-01-29T01:14:57.523Z,68.10
2023-01-29T01:17:24.432Z,68.20
2023-01-29T01:19:51.181Z,68.40
2023-01-29T01:22:18.046Z,68.60
2023-01-29T01:24:44.916Z,68.70
2023-01-29T01:27:12.393Z,68.60
2023-01-29T01:29:39.260Z,68.60
2023-01-29T01:32:06.276Z,68.60
2023-01-29T01:34:33.231Z,68.50
2023-01-29T01:37:01.051Z,68.60
2023-01-29T01:39:28.025Z,68.60
2023-01-29T01:41:54.846Z,68.60
2023-01-29T01:44:53.331Z,68.60
2023-01-29T01:47:28.910Z,68.60
2023-01-29T01:49:56.875Z,68.60
2023-01-29T01:52:24.206Z,68.60
2023-01-29T01:54:51.981Z,68.80
2023-01-29T01:57:24.779Z,68.80
2023-01-29T02:00:09.964Z,68.80
2023-01-29T02:03:01.681Z,68.90
2023-01-29T02:05:49.182Z,68.70
2023-01-29T02:08:41.448Z,68.70
2023-01-29T02:11:08.627Z,68.60
2023-01-29T02:13:35.927Z,68.50
2023-01-29T02:16:02.816Z,68.50
2023-01-29T02:18:29.796Z,68.50
2023-01-29T02:20:59.800Z,68.60
2023-01-29T02:23:56.810Z,68.60
2023-01-29T02:26:26.528Z,68.80
2023-01-29T02:29:22.714Z,68.90
2023-01-29T02:32:12.678Z,69.00
2023-01-29T02:35:23.201Z,68.90
2023-01-29T02:38:21.692Z,68.90
2023-01-29T02:41:22.216Z,68.90
2023-01-29T02:44:09.378Z,68.90
2023-01-29T02:46:38.981Z,69.00
2023-01-29T02:49:28.485Z,69.10
2023-01-29T02:52:09.949Z,69.10
2023-01-29T02:54:46.065Z,69.10
2023-01-29T02:57:44.670Z,69.20
2023-01-29T03:00:38.147Z,69.30
2023-01-29T03:03:23.208Z,69.20
2023-01-29T03:06:39.548Z,69.30
2023-01-29T03:09:28.343Z,69.30
2023-01-29T03:12:04.387Z,69.30
2023-01-29T03:15:01.590Z,69.30
2023-01-29T03:17:37.482Z,69.40
2023-01-29T03:20:13.479Z,69.40
2023-01-29T03:22:44.148Z,69.40
2023-01-29T03:25:32.665Z,69.40
2023-01-29T03:28:21.451Z,69.40
2023-01-29T03:31:10.364Z,69.40
2023-01-29T03:33:54.201Z,69.50
2023-01-29T03:36:49.500Z,69.40
2023-01-29T03:39:17.572Z,69.40
2023-01-29T03:41:56.133Z,69.50
2023-01-29T03:44:45.255Z,69.60
2023-01-29T03:47:22.779Z,69.70
2023-01-29T03:49:58.851Z,69.80
2023-01-29T03:53:06.565Z,70.00
2023-01-29T03:55:59.675Z,70.30
2023-01-29T03:58:43.933Z,70.30
2023-01-29T04:01:27.439Z,70.30
2023-01-29T04:04:05.407Z,70.50
2023-01-29T04:06:35.850Z,70.50
2023-01-29T04:09:25.310Z,70.60
2023-01-29T04:12:04.861Z,70.60
2023-01-29T04:14:33.201Z,70.70
2023-01-29T04:17:07.953Z,70.60
2023-01-29T04:19:41.317Z,70.60
2023-01-29T04:22:17.185Z,70.70
2023-01-29T04:24:44.914Z,70.70
2023-01-29T04:27:29.272Z,70.60
2023-01-29T04:30:11.748Z,70.60
2023-01-29T04:33:02.546Z,70.70
2023-01-29T04:35:56.107Z,70.70
2023-01-29T04:38:47.861Z,70.70
2023-01-29T04:41:40.588Z,70.70
2023-01-29T04:44:28.499Z,70.60
2023-01-29T04:47:17.238Z,70.60
2023-01-29T04:49:56.766Z,70.50
2023-01-29T04:52:30.022Z,70.40
2023-01-29T04:55:36.047Z,70.50
2023-01-29T04:58:15.227Z,70.50
2023-01-29T05:00:49.098Z,70.40
2023-01-29T05:03:16.754Z,70.30
2023-01-29T05:05:47.217Z,70.20
2023-01-29T05:08:18.062Z,70.30
2023-01-29T05:10:47.882Z,70.20
2023-01-29T05:13:15.363Z,70.20
2023-01-29T05:16:07.955Z,70.20
2023-01-29T05:18:35.502Z,70.20
2023-01-29T05:21:06.425Z,70.30
2023-01-29T05:23:33.283Z,70.30
2023-01-29T05:26:00.140Z,70.30
2023-01-29T05:28:27.059Z,70.30
2023-01-29T05:30:56.891Z,70.30
2023-01-29T05:33:31.602Z,70.30
2023-01-29T05:36:01.546Z,70.40
2023-01-29T05:38:28.442Z,70.30
2023-01-29T05:40:58.009Z,70.20
2023-01-29T05:43:25.945Z,70.20
2023-01-29T05:45:58.835Z,70.10
2023-01-29T05:48:28.732Z,70.10
2023-01-29T05:51:04.035Z,70.20
2023-01-29T05:53:32.115Z,70.10
2023-01-29T05:56:02.420Z,70.10
2023-01-29T05:58:31.408Z,70.20
2023-01-29T06:00:58.424Z,70.20
2023-01-29T06:03:25.324Z,70.00
2023-01-29T06:05:52.224Z,70.00
2023-01-29T06:08:19.039Z,70.00
2023-01-29T06:10:45.853Z,69.80
2023-01-29T06:13:12.645Z,69.80
2023-01-29T06:15:41.079Z,69.70
2023-01-29T06:18:08.351Z,69.70
2023-01-29T06:20:35.242Z,69.70
2023-01-29T06:23:02.036Z,69.60
2023-01-29T06:25:28.822Z,69.60
2023-01-29T06:27:58.405Z,69.60
2023-01-29T06:30:26.277Z,69.70
2023-01-29T06:32:56.587Z,69.60
2023-01-29T06:35:23.495Z,69.70
2023-01-29T06:37:50.348Z,69.70
2023-01-29T06:40:17.611Z,69.70
2023-01-29T06:42:46.120Z,69.70
2023-01-29T06:45:13.124Z,69.60
2023-01-29T06:47:40.059Z,69.60
2023-01-29T06:50:07.008Z,69.50
2023-01-29T06:52:33.759Z,69.50
2023-01-29T06:55:00.515Z,69.40
2023-01-29T06:57:30.080Z,69.40
2023-01-29T06:59:56.866Z,69.30
2023-01-29T07:02:23.787Z,69.30
2023-01-29T07:04:50.570Z,69.40
2023-01-29T07:07:17.592Z,69.40
2023-01-29T07:09:44.377Z,69.40
2023-01-29T07:12:11.688Z,69.40
2023-01-29T07:14:38.519Z,69.40
2023-01-29T07:17:05.456Z,69.40
2023-01-29T07:19:32.300Z,69.40
2023-01-29T07:22:02.323Z,69.40
2023-01-29T07:24:29.496Z,69.40
2023-01-29T07:26:56.869Z,69.40
2023-01-29T07:29:23.674Z,69.40
2023-01-29T07:31:50.663Z,69.60
2023-01-29T07:34:17.566Z,69.60
2023-01-29T07:36:44.484Z,69.70
2023-01-29T07:39:11.280Z,69.70
2023-01-29T07:41:38.151Z,69.70
2023-01-29T07:44:15.400Z,69.70
2023-01-29T07:46:42.463Z,69.60
2023-01-29T07:49:09.437Z,69.50
2023-01-29T07:51:36.197Z,69.50
2023-01-29T07:54:03.020Z,69.40
2023-01-29T07:56:29.889Z,69.40
2023-01-29T07:58:56.736Z,69.30
2023-01-29T08:01:23.935Z,69.30
2023-01-29T08:03:51.526Z,69.30
2023-01-29T08:06:19.258Z,69.20
2023-01-29T08:08:46.034Z,69.20
2023-01-29T08:11:13.059Z,69.10
2023-01-29T08:13:39.891Z,69.20
2023-01-29T08:16:07.172Z,69.20
2023-01-29T08:18:34.149Z,69.10
2023-01-29T08:21:01.983Z,69.10
2023-01-29T08:23:28.888Z,69.00
2023-01-29T08:25:55.880Z,69.00
2023-01-29T08:28:22.848Z,69.00
2023-01-29T08:30:49.759Z,68.90
2023-01-29T08:33:19.480Z,68.90
2023-01-29T08:35:51.740Z,68.80
2023-01-29T08:38:18.707Z,68.60
2023-01-29T08:40:45.649Z,68.60
2023-01-29T08:43:14.049Z,68.60
2023-01-29T08:45:43.341Z,68.60
2023-01-29T08:48:10.566Z,68.50
2023-01-29T08:50:37.977Z,68.50
2023-01-29T08:53:07.990Z,68.50
2023-01-29T08:55:39.647Z,68.40
2023-01-29T08:58:08.417Z,68.30
2023-01-29T09:00:35.873Z,68.20
2023-01-29T09:03:03.839Z,68.20
2023-01-29T09:05:31.209Z,68.10
2023-01-29T09:07:58.119Z,68.10
2023-01-29T09:10:25.990Z,67.90
2023-01-29T09:12:52.890Z,68.10
2023-01-29T09:15:20.072Z,68.00
2023-01-29T09:17:49.422Z,68.10
2023-01-29T09:20:16.865Z,68.00
2023-01-29T09:22:44.096Z,68.10
2023-01-29T09:25:11.336Z,68.10
2023-01-29T09:27:38.228Z,67.90
2023-01-29T09:30:06.328Z,67.70
2023-01-29T09:32:53.521Z,67.70
2023-01-29T09:35:22.804Z,67.70
2023-01-29T09:37:51.655Z,67.60
2023-01-29T09:40:25.695Z,67.60
2023-01-29T09:43:00.955Z,67.60
2023-01-29T09:45:29.816Z,67.70
2023-01-29T09:48:00.941Z,67.60
2023-01-29T09:50:33.621Z,67.50
2023-01-29T09:53:23.557Z,67.40
2023-01-29T09:56:04.245Z,67.30
2023-01-29T09:58:35.891Z,67.30
2023-01-29T10:01:18.013Z,67.30
2023-01-29T10:04:02.966Z,67.20
2023-01-29T10:06:45.114Z,67.10
2023-01-29T10:09:20.656Z,66.80
2023-01-29T10:12:12.105Z,67.00
2023-01-29T10:14:44.732Z,67.00
2023-01-29T10:17:36.355Z,67.00
2023-01-29T10:20:25.154Z,67.00
2023-01-29T10:23:15.199Z,67.30
2023-01-29T10:25:42.922Z,67.10
2023-01-29T10:28:28.087Z,67.10
2023-01-29T10:31:04.141Z,67.10
2023-01-29T10:34:02.768Z,67.20
2023-01-29T10:36:49.721Z,67.20
2023-01-29T10:39:21.785Z,67.10
2023-01-29T10:42:15.042Z,67.10
2023-01-29T10:44:56.796Z,67.10
2023-01-29T10:47:52.737Z,67.10
2023-01-29T10:50:33.316Z,67.10
2023-01-29T10:53:18.912Z,67.10
2023-01-29T10:56:22.714Z,67.00
2023-01-29T10:59:26.779Z,67.20
2023-01-29T11:02:00.985Z,67.40
2023-01-29T11:04:29.549Z,67.20
2023-01-29T11:06:56.727Z,67.10
2023-01-29T11:09:29.570Z,67.00
2023-01-29T11:12:20.907Z,66.90
2023-01-29T11:14:52.807Z,67.00
2023-01-29T11:17:24.598Z,67.00
2023-01-29T11:19:53.474Z,66.90
2023-01-29T11:22:26.528Z,66.90
2023-01-29T11:25:18.975Z,66.90
2023-01-29T11:27:57.303Z,66.90
2023-01-29T11:30:37.662Z,66.90
2023-01-29T11:33:21.775Z,67.00
2023-01-29T11:35:48.682Z,67.20
2023-01-29T11:38:29.589Z,67.30
2023-01-29T11:41:07.222Z,67.30
2023-01-29T11:43:34.194Z,67.40
2023-01-29T11:46:06.807Z,67.30
2023-01-29T11:48:47.865Z,67.30
2023-01-29T11:51:28.842Z,67.50
2023-01-29T11:54:06.494Z,67.60
2023-01-29T11:56:41.267Z,67.70
2023-01-29T11:59:30.652Z,67.80
2023-01-29T12:02:06.075Z,67.90
2023-01-29T12:04:32.882Z,67.90
2023-01-29T12:06:59.763Z,68.00
2023-01-29T12:09:28.881Z,68.10
2023-01-29T12:11:55.941Z,68.10
2023-01-29T12:14:33.303Z,68.20
2023-01-29T12:17:08.053Z,68.20
2023-01-29T12:19:38.377Z,68.30
2023-01-29T12:22:13.059Z,68.50
2023-01-29T12:24:48.669Z,68.50
2023-01-29T12:27:43.431Z,68.60
2023-01-29T12:30:48.428Z,68.60
2023-01-29T12:33:38.475Z,68.70
2023-01-29T12:36:25.971Z,68.70
2023-01-29T12:38:53.985Z,68.70
2023-01-29T12:41:45.808Z,68.70
2023-01-29T12:44:24.194Z,68.80
2023-01-29T12:46:55.789Z,68.70
2023-01-29T12:49:28.248Z,68.70
2023-01-29T12:52:06.662Z,68.80
2023-01-29T12:54:39.573Z,68.80
2023-01-29T12:57:17.168Z,69.00
2023-01-29T12:59:49.528Z,69.00
2023-01-29T13:02:45.710Z,69.00
2023-01-29T13:05:21.506Z,69.10
2023-01-29T13:07:53.410Z,69.20
2023-01-29T13:10:37.465Z,69.20
2023-01-29T13:13:26.933Z,69.40
2023-01-29T13:15:55.386Z,69.30
2023-01-29T13:18:42.553Z,69.30
2023-01-29T13:21:15.065Z,69.00
2023-01-29T13:23:52.169Z,68.80
2023-01-29T13:26:21.145Z,68.30
2023-01-29T13:28:49.397Z,68.20
2023-01-29T13:31:29.699Z,68.10
2023-01-29T13:34:04.782Z,68.30
2023-01-29T13:36:32.306Z,68.10
2023-01-29T13:39:08.491Z,68.20
2023-01-29T13:41:39.959Z,68.20
2023-01-29T13:44:18.248Z,67.80
2023-01-29T13:47:18.355Z,68.00
2023-01-29T13:49:53.136Z,68.00
2023-01-29T13:52:42.944Z,68.10
2023-01-29T13:55:31.012Z,68.00
2023-01-29T13:58:02.762Z,68.20
2023-01-29T14:00:35.374Z,68.20
2023-01-29T14:03:04.633Z,68.30
2023-01-29T14:05:31.514Z,68.30
2023-01-29T14:08:02.148Z,68.30
2023-01-29T14:10:37.664Z,68.20
2023-01-29T14:13:04.330Z,68.20
2023-01-29T14:15:32.532Z,68.20
2023-01-29T14:18:08.563Z,68.20
2023-01-29T14:21:29.772Z,68.30
2023-01-29T14:24:17.127Z,68.50
2023-01-29T14:26:47.635Z,68.40
2023-01-29T14:32:20.243Z,68.50
2023-01-29T14:32:42.621Z,68.40
2023-01-29T14:35:05.162Z,68.50
2023-01-29T14:37:36.166Z,68.60
2023-01-29T14:40:12.038Z,68.80
2023-01-29T14:42:43.777Z,68.80
2023-01-29T14:45:39.829Z,68.80
2023-01-29T14:48:09.796Z,68.60
2023-01-29T14:50:36.589Z,68.80
2023-01-29T14:53:14.445Z,68.90
2023-01-29T14:55:55.657Z,69.00
2023-01-29T14:58:36.850Z,69.10
2023-01-29T15:01:07.753Z,69.20
2023-01-29T15:03:53.376Z,69.30
2023-01-29T15:06:47.513Z,69.30
2023-01-29T15:09:47.538Z,69.30
2023-01-29T15:12:44.998Z,69.30
2023-01-29T15:15:18.301Z,69.30
2023-01-29T15:17:51.264Z,69.60
2023-01-29T15:20:35.128Z,69.70
2023-01-29T15:23:06.106Z,70.00
2023-01-29T15:25:49.676Z,70.10
2023-01-29T15:28:16.489Z,70.30
2023-01-29T15:30:45.017Z,70.40
2023-01-29T15:33:14.298Z,70.40
2023-01-29T15:35:42.482Z,70.50
2023-01-29T15:38:17.674Z,70.50
2023-01-29T15:40:59.265Z,70.70
2023-01-29T15:43:27.367Z,70.90
2023-01-29T15:46:00.279Z,71.00
2023-01-29T15:48:40.694Z,71.10
2023-01-29T15:51:11.855Z,71.10
2023-01-29T15:53:49.881Z,71.00
2023-01-29T15:56:21.549Z,71.10
2023-01-29T15:58:49.501Z,71.20
2023-01-29T16:01:16.679Z,71.50
2023-01-29T16:03:44.545Z,71.80
2023-01-29T16:06:11.945Z,72.50
2023-01-29T16:08:40.776Z,72.70
2023-01-29T16:11:08.571Z,72.90
2023-01-29T16:13:39.479Z,73.40
2023-01-29T16:16:24.585Z,73.30
2023-01-29T16:18:59.979Z,73.60
2023-01-29T16:21:37.867Z,74.00
2023-01-29T16:24:15.808Z,74.10
2023-01-29T16:26:45.882Z,74.20
2023-01-29T16:29:18.994Z,74.30
2023-01-29T16:31:48.497Z,74.20
2023-01-29T16:34:25.692Z,74.10
2023-01-29T16:36:54.697Z,74.10
2023-01-29T16:39:28.114Z,74.20
2023-01-29T16:42:21.732Z,74.10
2023-01-29T16:45:07.381Z,74.10
2023-01-29T16:47:41.111Z,73.90
2023-01-29T16:50:35.978Z,73.90
2023-01-29T16:53:25.122Z,73.80
2023-01-29T16:55:52.911Z,73.80
2023-01-29T16:58:22.723Z,73.80
2023-01-29T17:00:53.728Z,73.60
2023-01-29T17:03:21.338Z,73.70
2023-01-29T17:05:48.264Z,73.70
2023-01-29T17:08:22.176Z,73.70
2023-01-29T17:10:49.340Z,73.60
2023-01-29T17:13:40.439Z,73.60
2023-01-29T17:16:22.308Z,73.40
2023-01-29T17:18:49.490Z,73.30
2023-01-29T17:21:16.318Z,73.20
2023-01-29T17:23:43.239Z,73.10
2023-01-29T17:26:13.440Z,73.10
2023-01-29T17:28:41.470Z,73.00
2023-01-29T17:31:08.884Z,73.10
2023-01-29T17:33:42.683Z,73.00
2023-01-29T17:36:12.668Z,73.10
2023-01-29T17:38:39.995Z,73.20
2023-01-29T17:41:33.449Z,73.20
2023-01-29T17:44:00.267Z,73.30
2023-01-29T17:46:27.996Z,73.50
2023-01-29T17:48:54.835Z,73.50
2023-01-29T17:51:24.621Z,73.60
2023-01-29T17:53:51.763Z,73.70
2023-01-29T17:56:23.839Z,73.70
2023-01-29T17:58:50.762Z,73.70
2023-01-29T18:01:17.519Z,73.70
2023-01-29T18:03:44.457Z,73.70
2023-01-29T18:06:20.143Z,73.70
2023-01-29T18:08:46.999Z,73.80
2023-01-29T18:11:13.767Z,73.90
2023-01-29T18:13:41.968Z,74.00
2023-01-29T18:16:09.344Z,74.00
2023-01-29T18:18:36.239Z,74.00
2023-01-29T18:21:03.189Z,73.90
2023-01-29T18:23:31.138Z,74.10
2023-01-29T18:25:58.147Z,74.10
2023-01-29T18:28:25.466Z,74.20
2023-01-29T18:30:52.926Z,74.20
2023-01-29T18:33:19.914Z,74.30
2023-01-29T18:35:48.335Z,74.20
2023-01-29T18:38:15.604Z,74.20
2023-01-29T18:40:42.471Z,74.20
2023-01-29T18:43:09.445Z,74.30
2023-01-29T18:45:36.432Z,74.40
2023-01-29T18:48:03.350Z,74.50
2023-01-29T18:50:30.175Z,74.50
2023-01-29T18:52:57.076Z,74.60
2023-01-29T18:55:26.462Z,74.80
2023-01-29T18:58:27.273Z,74.70
2023-01-29T19:00:41.201Z,74.80
2023-01-29T19:03:07.998Z,74.80
2023-01-29T19:05:34.951Z,74.90
2023-01-29T19:08:01.899Z,75.00
2023-01-29T19:10:28.749Z,74.90
2023-01-29T19:12:55.723Z,74.90
2023-01-29T19:15:22.965Z,74.70
2023-01-29T19:17:53.017Z,74.70
2023-01-29T19:20:20.229Z,74.70
2023-01-29T19:22:47.159Z,74.70
2023-01-29T19:25:14.430Z,74.80
2023-01-29T19:27:41.486Z,74.90
2023-01-29T19:30:10.167Z,74.90
2023-01-29T19:32:36.937Z,74.90
2023-01-29T19:35:03.919Z,75.00
2023-01-29T19:37:30.996Z,75.00
2023-01-29T19:39:58.101Z,75.00
2023-01-29T19:42:25.077Z,75.10
2023-01-29T19:44:53.359Z,75.20
2023-01-29T19:47:20.511Z,75.20
2023-01-29T19:49:47.432Z,75.30
2023-01-29T19:52:49.690Z,75.30
2023-01-29T19:55:19.054Z,75.30
2023-01-29T19:57:46.370Z,75.20
2023-01-29T20:00:15.502Z,75.40
2023-01-29T20:02:42.358Z,75.60
2023-01-29T20:05:11.969Z,75.60
2023-01-29T20:07:42.501Z,75.60
2023-01-29T20:10:11.523Z,75.70
2023-01-29T20:12:38.681Z,75.70
2023-01-29T20:15:07.273Z,75.80
2023-01-29T20:17:34.264Z,75.90
2023-01-29T20:20:01.113Z,75.90
2023-01-29T20:22:29.786Z,76.10
2023-01-29T20:24:56.867Z,76.30
2023-01-29T20:27:23.968Z,76.40
2023-01-29T20:29:52.533Z,76.50
2023-01-29T20:32:19.455Z,76.60
2023-01-29T20:34:49.654Z,76.60
2023-01-29T20:37:16.574Z,76.60
2023-01-29T20:39:43.417Z,76.80
2023-01-29T20:42:10.346Z,77.00
2023-01-29T20:44:37.171Z,77.20
2023-01-29T20:47:04.154Z,77.30
2023-01-29T20:49:31.466Z,77.40
2023-01-29T20:51:58.259Z,77.60
2023-01-29T20:54:25.071Z,77.60
2023-01-29T20:56:52.115Z,77.60
2023-01-29T20:59:19.293Z,77.40
2023-01-29T21:01:46.172Z,77.50
2023-01-29T21:04:13.131Z,77.60
2023-01-29T21:06:39.923Z,77.70
2023-01-29T21:09:06.780Z,77.80
2023-01-29T21:11:33.683Z,77.90
2023-01-29T21:14:01.894Z,78.00
2023-01-29T21:16:28.924Z,78.10
2023-01-29T21:18:59.188Z,78.30
2023-01-29T21:21:26.675Z,78.40
2023-01-29T21:23:53.822Z,78.50
2023-01-29T21:26:21.040Z,78.60
2023-01-29T21:28:47.904Z,78.60
2023-01-29T21:31:16.871Z,78.70
2023-01-29T21:33:44.373Z,78.80
2023-01-29T21:36:11.642Z,79.10
2023-01-29T21:38:38.936Z,79.10
2023-01-29T21:41:08.868Z,79.10
2023-01-29T21:43:36.522Z,79.00
2023-01-29T21:46:06.024Z,79.10
2023-01-29T21:48:32.895Z,79.20
2023-01-29T21:50:59.772Z,79.30
2023-01-29T21:53:26.499Z,79.50
2023-01-29T21:55:58.573Z,79.60
2023-01-29T21:58:25.385Z,79.60
2023-01-29T22:00:52.112Z,79.90
2023-01-29T22:03:19.010Z,80.10
2023-01-29T22:05:45.827Z,80.30
2023-01-29T22:08:12.599Z,80.50
2023-01-29T22:10:39.362Z,80.50
2023-01-29T22:13:06.361Z,80.60
2023-01-29T22:15:33.325Z,80.50
2023-01-29T22:18:00.192Z,80.50
2023-01-29T22:20:30.723Z,80.60
2023-01-29T22:23:00.682Z,80.60
2023-01-29T22:25:27.943Z,80.60
2023-01-29T22:27:55.483Z,80.70
2023-01-29T22:30:23.285Z,80.90
2023-01-29T22:32:50.719Z,81.00
2023-01-29T22:35:17.759Z,81.00
2023-01-29T22:37:45.169Z,81.10
2023-01-29T22:40:12.992Z,81.40
2023-01-29T22:42:39.915Z,81.40
2023-01-29T22:45:08.023Z,81.40
2023-01-29T22:47:34.887Z,81.40
2023-01-29T22:50:01.892Z,81.50
2023-01-29T22:52:38.478Z,81.70
2023-01-29T22:55:07.747Z,81.90
2023-01-29T22:57:34.912Z,81.90
2023-01-29T23:00:09.032Z,82.00
2023-01-29T23:02:35.971Z,82.10
2023-01-29T23:05:03.754Z,82.10
2023-01-29T23:07:30.611Z,82.10
2023-01-29T23:09:57.339Z,82.00
2023-01-29T23:12:24.200Z,82.10
2023-01-29T23:14:50.939Z,81.90
2023-01-29T23:17:17.668Z,82.00
2023-01-29T23:19:44.449Z,82.00
2023-01-29T23:22:11.207Z,81.80
2023-01-29T23:24:38.126Z,82.00
2023-01-29T23:27:16.863Z,81.90
2023-01-29T23:29:45.970Z,81.90
2023-01-29T23:32:16.890Z,81.90
2023-01-29T23:34:43.883Z,82.00
2023-01-29T23:37:10.742Z,82.00
2023-01-29T23:39:37.858Z,82.00
2023-01-29T23:42:04.827Z,82.00
2023-01-29T23:44:31.667Z,81.90
2023-01-29T23:46:58.520Z,81.80
2023-01-29T23:49:25.319Z,81.80
2023-01-29T23:51:52.396Z,81.80
2023-01-29T23:54:19.298Z,81.90
2023-01-29T23:56:46.705Z,82.00
2023-01-29T23:59:14.730Z,82.10
